Time;durP1;ratioP1;P1;durP2;ratioP2;P2;SDS_P1;SDS_P2;PMS_P1;PMS_P2;Temp;Humidity;BMP_temperature;BMP_pressure;BME280_temperature;BME280_humidity;BME280_pressure;Samples;Min_cycle;Max_cycle;Signal;HPM_P1;HPM_P2
2023/01/03 00:00:17;;;;;;;2.78;1.80;;;;;;;;;;5086317;28;20039;-77
2023/01/03 00:02:48;;;;;;;3.40;2.40;;;;;;;;;;5087758;28;20051;-76
2023/01/03 00:05:17;;;;;;;3.05;2.03;;;;;;;;;;5101721;28;20394;-77
2023/01/03 00:07:48;;;;;;;3.50;2.22;;;;;;;;;;5105890;28;20051;-77
2023/01/03 00:10:20;;;;;;;4.88;2.55;;;;;;;;;;5106616;28;20047;-78
2023/01/03 00:12:51;;;;;;;3.15;2.20;;;;;;;;;;5106157;28;20051;-78
2023/01/03 00:15:21;;;;;;;4.35;2.35;;;;;;;;;;5106260;28;20054;-78
2023/01/03 00:17:54;;;;;;;5.05;2.40;;;;;;;;;;5106354;28;20055;-77
2023/01/03 00:20:24;;;;;;;4.75;2.60;;;;;;;;;;5105409;28;20521;-76
2023/01/03 00:22:54;;;;;;;4.38;2.28;;;;;;;;;;5106354;28;20052;-77
2023/01/03 00:25:26;;;;;;;2.85;2.50;;;;;;;;;;5106393;28;20055;-79
2023/01/03 00:27:56;;;;;;;4.28;2.15;;;;;;;;;;5106189;28;20490;-79
2023/01/03 00:30:26;;;;;;;3.65;2.13;;;;;;;;;;5105676;28;20051;-79
2023/01/03 00:32:56;;;;;;;6.97;2.53;;;;;;;;;;5109326;28;20052;-78
2023/01/03 00:35:37;;;;;;;5.25;2.80;;;;;;;;;;5109869;28;20489;-75
2023/01/03 00:38:07;;;;;;;3.38;2.13;;;;;;;;;;5109438;28;20039;-77
2023/01/03 00:40:38;;;;;;;3.42;2.58;;;;;;;;;;5109279;28;20044;-77
2023/01/03 00:45:58;;;;;;;3.85;1.92;;;;;;;;;;5109948;28;20469;-75
2023/01/03 00:48:28;;;;;;;2.65;1.85;;;;;;;;;;5110115;28;20050;-75
2023/01/03 00:51:13;;;;;;;2.65;2.10;;;;;;;;;;5109894;28;20043;-76
2023/01/03 00:53:45;;;;;;;3.78;2.60;;;;;;;;;;5107676;28;20051;-76
2023/01/03 00:56:19;;;;;;;5.90;2.22;;;;;;;;;;5108597;28;20050;-76
2023/01/03 00:58:51;;;;;;;6.70;2.90;;;;;;;;;;5108249;28;20043;-75
2023/01/03 01:01:27;;;;;;;4.82;2.67;;;;;;;;;;5108549;28;20036;-76
2023/01/03 01:04:03;;;;;;;3.50;2.25;;;;;;;;;;5109855;28;20044;-76
2023/01/03 01:06:39;;;;;;;5.65;2.53;;;;;;;;;;5105540;28;20593;-76
2023/01/03 01:09:13;;;;;;;4.82;3.03;;;;;;;;;;5109364;28;20052;-76
2023/01/03 01:11:44;;;;;;;6.13;3.08;;;;;;;;;;5109111;28;20055;-76
2023/01/03 01:14:21;;;;;;;4.28;2.45;;;;;;;;;;5108951;28;20050;-76
2023/01/03 01:16:55;;;;;;;4.60;2.40;;;;;;;;;;5108041;28;20047;-76
2023/01/03 01:19:30;;;;;;;2.97;2.30;;;;;;;;;;5109999;28;20046;-76
2023/01/03 01:22:00;;;;;;;4.30;2.80;;;;;;;;;;5109472;28;20043;-76
2023/01/03 01:24:31;;;;;;;4.25;2.22;;;;;;;;;;5109759;28;20048;-75
2023/01/03 01:27:01;;;;;;;5.28;2.80;;;;;;;;;;5109392;28;20049;-76
2023/01/03 01:29:32;;;;;;;4.25;2.22;;;;;;;;;;5109130;28;20047;-76
2023/01/03 01:32:02;;;;;;;4.38;2.83;;;;;;;;;;5109679;28;20052;-76
2023/01/03 01:34:32;;;;;;;3.45;2.28;;;;;;;;;;5108574;28;20429;-75
2023/01/03 01:37:03;;;;;;;4.07;2.65;;;;;;;;;;5108628;28;20043;-75
2023/01/03 01:39:35;;;;;;;5.05;3.40;;;;;;;;;;5109086;28;20043;-76
2023/01/03 01:45:05;;;;;;;4.15;2.60;;;;;;;;;;5108870;28;20039;-75
2023/01/03 01:47:43;;;;;;;5.68;2.28;;;;;;;;;;5107522;28;20059;-76
2023/01/03 01:50:37;;;;;;;3.88;3.00;;;;;;;;;;5108398;28;20047;-76
2023/01/03 01:53:14;;;;;;;5.38;2.20;;;;;;;;;;5109059;28;20516;-76
2023/01/03 01:55:59;;;;;;;4.22;2.50;;;;;;;;;;5109368;28;20059;-76
2023/01/03 01:58:35;;;;;;;3.28;2.38;;;;;;;;;;5107800;28;20055;-77
2023/01/03 02:01:11;;;;;;;7.57;2.42;;;;;;;;;;5108844;28;20050;-75
2023/01/03 02:03:45;;;;;;;8.32;2.60;;;;;;;;;;5108642;28;20058;-79
2023/01/03 02:06:18;;;;;;;6.93;4.35;;;;;;;;;;5108746;28;20048;-78
2023/01/03 02:08:48;;;;;;;5.82;3.05;;;;;;;;;;5108903;28;20486;-76
2023/01/03 02:11:25;;;;;;;7.78;3.33;;;;;;;;;;5107461;28;20058;-76
2023/01/03 02:14:14;;;;;;;7.93;3.90;;;;;;;;;;5109070;28;20051;-75
2023/01/03 02:17:01;;;;;;;8.25;3.92;;;;;;;;;;5109315;28;20051;-75
2023/01/03 02:19:40;;;;;;;4.57;3.28;;;;;;;;;;5107962;28;20074;-75
2023/01/03 02:22:20;;;;;;;6.97;3.78;;;;;;;;;;5107611;28;20501;-75
2023/01/03 02:25:31;;;;;;;7.95;3.35;;;;;;;;;;5106460;28;20052;-75
2023/01/03 02:28:19;;;;;;;5.53;3.00;;;;;;;;;;5044099;28;20064;-74
2023/01/03 02:30:53;;;;;;;7.03;3.63;;;;;;;;;;5044735;28;20048;-75
2023/01/03 02:33:54;;;;;;;5.32;3.63;;;;;;;;;;5087896;28;20059;-75
2023/01/03 02:36:48;;;;;;;6.07;3.80;;;;;;;;;;5106174;28;20051;-75
2023/01/03 02:39:45;;;;;;;5.00;3.17;;;;;;;;;;5106315;28;20039;-75
2023/01/03 02:45:54;;;;;;;4.47;3.03;;;;;;;;;;5107505;28;20058;-75
2023/01/03 02:48:31;;;;;;;5.25;3.40;;;;;;;;;;5108353;28;20040;-75
2023/01/03 02:51:09;;;;;;;5.28;3.20;;;;;;;;;;5107770;28;20040;-75
2023/01/03 02:53:45;;;;;;;5.95;3.35;;;;;;;;;;5105971;28;20468;-75
2023/01/03 02:56:29;;;;;;;4.43;2.95;;;;;;;;;;5107835;28;20048;-75
2023/01/03 02:59:06;;;;;;;5.60;3.25;;;;;;;;;;5107137;28;20494;-74
2023/01/03 03:01:43;;;;;;;3.42;2.80;;;;;;;;;;5108030;28;20048;-75
2023/01/03 03:04:15;;;;;;;4.50;2.30;;;;;;;;;;5106936;28;20517;-74
2023/01/03 03:07:20;;;;;;;5.05;2.33;;;;;;;;;;5106811;28;20090;-75
2023/01/03 03:15:49;;;;;;;2.30;2.10;;;;;;;;;;5107542;28;20059;-75
2023/01/03 03:18:59;;;;;;;5.20;2.30;;;;;;;;;;5106975;28;20050;-75
2023/01/03 03:30:16;;;;;;;2.35;2.00;;;;;;;;;;5107420;28;20058;-75
2023/01/03 03:32:51;;;;;;;5.57;2.03;;;;;;;;;;5107090;28;20058;-74
2023/01/03 03:35:24;;;;;;;3.72;2.55;;;;;;;;;;5105498;28;20534;-75
2023/01/03 03:37:58;;;;;;;3.88;2.25;;;;;;;;;;5107224;28;20051;-75
2023/01/03 03:46:31;;;;;;;5.55;2.60;;;;;;;;;;5106652;28;20047;-75
2023/01/03 03:52:02;;;;;;;3.80;2.03;;;;;;;;;;5106800;28;20106;-74
2023/01/03 03:54:36;;;;;;;3.25;1.90;;;;;;;;;;5106886;28;20047;-76
2023/01/03 03:57:23;;;;;;;5.45;2.17;;;;;;;;;;5106883;28;20054;-75
2023/01/03 04:00:04;;;;;;;3.25;2.17;;;;;;;;;;5104617;28;20051;-75
2023/01/03 04:02:41;;;;;;;2.30;2.08;;;;;;;;;;5112267;28;20055;-75
2023/01/03 04:05:16;;;;;;;6.88;1.83;;;;;;;;;;5105998;28;20406;-75
2023/01/03 04:07:47;;;;;;;2.00;1.58;;;;;;;;;;5109123;28;20524;-75
2023/01/03 04:10:19;;;;;;;2.88;1.88;;;;;;;;;;5110733;28;20518;-75
2023/01/03 04:12:55;;;;;;;2.15;1.83;;;;;;;;;;5109405;28;20047;-75
2023/01/03 04:15:26;;;;;;;3.45;2.20;;;;;;;;;;5110873;28;20059;-75
2023/01/03 04:17:56;;;;;;;2.30;1.60;;;;;;;;;;5110640;28;20421;-75
2023/01/03 04:20:26;;;;;;;3.58;1.77;;;;;;;;;;5110612;28;20051;-75
2023/01/03 04:22:56;;;;;;;2.33;1.98;;;;;;;;;;5108836;28;20054;-75
2023/01/03 04:25:27;;;;;;;4.32;2.15;;;;;;;;;;5108904;28;20044;-75
2023/01/03 04:27:58;;;;;;;3.55;1.70;;;;;;;;;;5110685;28;20055;-76
2023/01/03 04:30:28;;;;;;;3.22;1.60;;;;;;;;;;5110776;28;20505;-75
2023/01/03 04:33:03;;;;;;;3.10;1.77;;;;;;;;;;5110203;28;20794;-75
2023/01/03 04:35:34;;;;;;;4.03;2.42;;;;;;;;;;5110884;28;20047;-75
2023/01/03 04:38:06;;;;;;;5.60;2.40;;;;;;;;;;5110011;28;20051;-75
2023/01/03 04:40:37;;;;;;;7.18;3.00;;;;;;;;;;5110091;28;20047;-75
2023/01/03 04:45:58;;;;;;;3.42;2.50;;;;;;;;;;5109990;28;20040;-74
2023/01/03 04:48:28;;;;;;;3.38;2.95;;;;;;;;;;5109579;28;20448;-75
2023/01/03 04:51:00;;;;;;;5.47;3.05;;;;;;;;;;5110347;28;20524;-75
2023/01/03 04:53:30;;;;;;;5.88;3.30;;;;;;;;;;5110324;28;20048;-75
2023/01/03 04:55:59;;;;;;;4.28;2.63;;;;;;;;;;5109875;28;20051;-74
2023/01/03 04:58:31;;;;;;;5.72;2.70;;;;;;;;;;5109590;28;20503;-75
2023/01/03 05:01:04;;;;;;;5.97;2.67;;;;;;;;;;5107539;28;20058;-75
2023/01/03 05:03:36;;;;;;;5.85;3.13;;;;;;;;;;5110253;28;20048;-75
2023/01/03 05:06:08;;;;;;;4.78;3.17;;;;;;;;;;5108002;28;20048;-75
2023/01/03 05:08:39;;;;;;;3.58;2.65;;;;;;;;;;5109741;28;20516;-75
2023/01/03 05:11:11;;;;;;;5.72;2.72;;;;;;;;;;5109534;28;20062;-75
2023/01/03 05:13:40;;;;;;;3.72;2.45;;;;;;;;;;5110008;28;20055;-75
2023/01/03 05:16:13;;;;;;;6.20;2.40;;;;;;;;;;5107311;28;20062;-75
2023/01/03 05:18:46;;;;;;;4.38;2.63;;;;;;;;;;5108270;28;20051;-75
2023/01/03 05:27:03;;;;;;;7.13;2.92;;;;;;;;;;5109401;28;20052;-75
2023/01/03 05:29:35;;;;;;;5.53;2.38;;;;;;;;;;5109692;28;20050;-75
2023/01/03 05:32:06;;;;;;;5.22;2.70;;;;;;;;;;5107584;28;20498;-75
2023/01/03 05:34:37;;;;;;;4.22;2.47;;;;;;;;;;5108465;28;20638;-75
2023/01/03 05:37:07;;;;;;;3.55;2.10;;;;;;;;;;5109161;28;20051;-75
2023/01/03 05:39:37;;;;;;;4.28;2.30;;;;;;;;;;5110981;28;20048;-75
2023/01/03 05:42:08;;;;;;;6.03;2.35;;;;;;;;;;5113730;28;20051;-75
2023/01/03 05:44:38;;;;;;;5.22;2.65;;;;;;;;;;5109199;28;20050;-75
2023/01/03 05:47:08;;;;;;;3.47;2.15;;;;;;;;;;5109220;28;20052;-75
2023/01/03 05:49:37;;;;;;;2.85;2.30;;;;;;;;;;5108988;28;20043;-75
2023/01/03 05:52:09;;;;;;;6.15;2.17;;;;;;;;;;5108610;28;20513;-75
2023/01/03 05:54:41;;;;;;;9.25;2.10;;;;;;;;;;5109048;28;20078;-75
2023/01/03 05:57:11;;;;;;;2.70;2.15;;;;;;;;;;5108210;28;20043;-75
2023/01/03 05:59:41;;;;;;;3.75;1.67;;;;;;;;;;5108926;28;20524;-75
2023/01/03 06:02:12;;;;;;;4.50;2.50;;;;;;;;;;5108512;28;20043;-75
2023/01/03 06:04:43;;;;;;;3.42;2.00;;;;;;;;;;5108951;28;20047;-75
2023/01/03 06:07:14;;;;;;;7.35;2.17;;;;;;;;;;5108540;28;20043;-75
2023/01/03 06:09:46;;;;;;;6.53;2.30;;;;;;;;;;5108536;28;20046;-75
2023/01/03 06:12:15;;;;;;;3.72;2.33;;;;;;;;;;5108311;28;20066;-75
2023/01/03 06:14:45;;;;;;;3.42;1.73;;;;;;;;;;5108579;28;20046;-75
2023/01/03 06:20:06;;;;;;;5.95;2.67;;;;;;;;;;5108375;28;20070;-75
2023/01/03 06:22:37;;;;;;;5.05;2.17;;;;;;;;;;5107491;28;20039;-75
2023/01/03 06:25:07;;;;;;;3.00;2.00;;;;;;;;;;5107096;28;20047;-75
2023/01/03 06:27:38;;;;;;;4.63;2.38;;;;;;;;;;5106468;28;20054;-75
2023/01/03 06:30:10;;;;;;;6.22;2.03;;;;;;;;;;5106440;28;20445;-75
2023/01/03 06:32:41;;;;;;;6.68;2.50;;;;;;;;;;5107755;28;20730;-75
2023/01/03 06:35:12;;;;;;;5.78;2.33;;;;;;;;;;5108013;28;20734;-75
2023/01/03 06:37:42;;;;;;;4.75;2.33;;;;;;;;;;5107587;28;20380;-75
2023/01/03 06:40:14;;;;;;;6.80;2.80;;;;;;;;;;5108423;28;20059;-75
2023/01/03 06:42:44;;;;;;;7.82;2.60;;;;;;;;;;5107595;28;20046;-75
2023/01/03 06:53:44;;;;;;;4.70;1.95;;;;;;;;;;5107123;28;20398;-74
2023/01/03 06:56:15;;;;;;;7.30;2.90;;;;;;;;;;5107467;28;20051;-75
2023/01/03 06:58:44;;;;;;;3.70;1.88;;;;;;;;;;5107576;28;20043;-75
2023/01/03 07:01:15;;;;;;;5.70;1.95;;;;;;;;;;5107559;28;20063;-75
2023/01/03 07:03:47;;;;;;;6.55;2.20;;;;;;;;;;5106213;28;20374;-75
2023/01/03 07:06:17;;;;;;;3.95;2.10;;;;;;;;;;5108493;28;20054;-75
2023/01/03 07:08:47;;;;;;;3.17;2.20;;;;;;;;;;5107016;28;20050;-75
2023/01/03 07:11:17;;;;;;;5.25;2.42;;;;;;;;;;5107534;28;20044;-75
2023/01/03 07:13:59;;;;;;;9.80;2.30;;;;;;;;;;5107390;28;20113;-75
2023/01/03 07:16:32;;;;;;;4.30;2.25;;;;;;;;;;5107089;28;20043;-75
2023/01/03 07:19:05;;;;;;;3.95;2.00;;;;;;;;;;5106996;28;20042;-75
2023/01/03 07:21:36;;;;;;;5.93;2.10;;;;;;;;;;5106817;28;20039;-75
2023/01/03 07:24:08;;;;;;;5.60;2.17;;;;;;;;;;5106937;28;20391;-75
2023/01/03 07:26:39;;;;;;;3.75;1.60;;;;;;;;;;5106374;28;20039;-75
2023/01/03 07:29:10;;;;;;;3.85;1.83;;;;;;;;;;5106370;28;20102;-75
2023/01/03 07:31:40;;;;;;;3.95;1.80;;;;;;;;;;5106813;28;20066;-75
2023/01/03 07:34:11;;;;;;;2.50;1.70;;;;;;;;;;5106801;28;20050;-75
2023/01/03 07:36:43;;;;;;;3.67;1.80;;;;;;;;;;5104578;28;20055;-75
2023/01/03 07:39:14;;;;;;;3.38;1.92;;;;;;;;;;5106657;28;20055;-75
2023/01/03 07:44:32;;;;;;;3.65;1.92;;;;;;;;;;5107093;28;20044;-75
2023/01/03 07:47:03;;;;;;;3.85;1.80;;;;;;;;;;5106438;28;20525;-75
2023/01/03 07:49:33;;;;;;;4.28;2.03;;;;;;;;;;5106479;28;20509;-75
2023/01/03 07:52:04;;;;;;;5.22;2.25;;;;;;;;;;5106988;28;20044;-75
2023/01/03 07:54:35;;;;;;;4.13;1.60;;;;;;;;;;5107054;28;21134;-75
2023/01/03 07:57:05;;;;;;;3.47;1.70;;;;;;;;;;5106284;28;20047;-75
2023/01/03 07:59:35;;;;;;;3.53;2.13;;;;;;;;;;5105059;28;20047;-75
2023/01/03 08:02:07;;;;;;;3.78;1.73;;;;;;;;;;5106212;28;20430;-75
2023/01/03 08:04:41;;;;;;;5.97;1.90;;;;;;;;;;5106643;28;20044;-75
2023/01/03 08:07:12;;;;;;;6.30;2.25;;;;;;;;;;5106683;28;20044;-75
2023/01/03 08:15:20;;;;;;;3.80;1.90;;;;;;;;;;5106720;28;20055;-75
2023/01/03 08:17:50;;;;;;;2.92;1.95;;;;;;;;;;5104876;28;20944;-75
2023/01/03 08:20:22;;;;;;;5.43;1.83;;;;;;;;;;5106994;28;20058;-75
2023/01/03 08:22:51;;;;;;;5.80;1.70;;;;;;;;;;5106329;28;20518;-75
2023/01/03 08:25:22;;;;;;;4.13;2.20;;;;;;;;;;5105186;28;20048;-75
2023/01/03 08:27:52;;;;;;;4.95;1.90;;;;;;;;;;5106538;28;20744;-75
2023/01/03 08:30:23;;;;;;;2.10;1.63;;;;;;;;;;5106133;28;20043;-75
2023/01/03 08:32:55;;;;;;;2.35;1.50;;;;;;;;;;5105276;28;20036;-75
2023/01/03 08:35:29;;;;;;;4.70;1.73;;;;;;;;;;5106044;28;20387;-75
2023/01/03 08:38:02;;;;;;;3.97;1.92;;;;;;;;;;5106224;28;20498;-75
2023/01/03 08:40:35;;;;;;;6.47;2.15;;;;;;;;;;5105508;28;20051;-75
2023/01/03 08:43:11;;;;;;;2.00;1.80;;;;;;;;;;5104377;28;20055;-76
2023/01/03 08:45:43;;;;;;;7.05;2.15;;;;;;;;;;5104994;28;20048;-76
2023/01/03 08:48:13;;;;;;;3.30;1.85;;;;;;;;;;5104943;28;20048;-76
2023/01/03 08:50:45;;;;;;;4.75;1.63;;;;;;;;;;5106718;28;20043;-76
2023/01/03 08:53:15;;;;;;;4.43;1.55;;;;;;;;;;5108728;28;20070;-75
2023/01/03 08:55:45;;;;;;;5.00;1.80;;;;;;;;;;5109600;28;20058;-75
2023/01/03 08:58:16;;;;;;;3.85;1.35;;;;;;;;;;5108231;28;20054;-76
2023/01/03 09:00:46;;;;;;;6.03;1.55;;;;;;;;;;5110255;28;20070;-75
2023/01/03 09:03:18;;;;;;;4.20;1.70;;;;;;;;;;5110208;28;20044;-75
2023/01/03 09:05:48;;;;;;;3.40;1.67;;;;;;;;;;5109452;28;20399;-76
2023/01/03 09:08:18;;;;;;;3.40;1.55;;;;;;;;;;5109977;28;20059;-75
2023/01/03 09:10:49;;;;;;;6.60;1.90;;;;;;;;;;5107304;28;20063;-76
2023/01/03 09:13:19;;;;;;;4.93;1.33;;;;;;;;;;5109790;28;20050;-76
2023/01/03 09:15:50;;;;;;;2.08;1.33;;;;;;;;;;5110370;28;21076;-76
2023/01/03 09:18:21;;;;;;;5.70;1.52;;;;;;;;;;5108333;28;20052;-75
2023/01/03 09:20:51;;;;;;;2.15;1.15;;;;;;;;;;5109563;28;20043;-78
2023/01/03 09:23:24;;;;;;;4.65;1.25;;;;;;;;;;5109338;28;20050;-76
2023/01/03 09:25:55;;;;;;;6.07;1.17;;;;;;;;;;5107906;28;20047;-76
2023/01/03 09:28:26;;;;;;;4.93;1.00;;;;;;;;;;5109440;28;20495;-76
2023/01/03 09:30:56;;;;;;;3.80;1.45;;;;;;;;;;5109436;28;20161;-76
2023/01/03 09:33:26;;;;;;;2.30;0.75;;;;;;;;;;5109160;28;20383;-76
2023/01/03 09:35:58;;;;;;;4.53;0.98;;;;;;;;;;5109405;28;20040;-77
2023/01/03 09:38:29;;;;;;;2.22;0.80;;;;;;;;;;5109634;28;20054;-76
2023/01/03 09:41:06;;;;;;;4.40;1.10;;;;;;;;;;5108130;28;20052;-76
2023/01/03 09:43:43;;;;;;;5.20;1.60;;;;;;;;;;5108880;28;20047;-76
2023/01/03 09:46:23;;;;;;;2.53;1.13;;;;;;;;;;5109071;28;20054;-77
2023/01/03 09:48:54;;;;;;;5.97;1.10;;;;;;;;;;5108912;28;20055;-77
2023/01/03 10:03:43;;;;;;;3.10;0.60;;;;;;;;;;5109097;28;20405;-76
2023/01/03 10:06:56;;;;;;;9.55;1.02;;;;;;;;;;5108952;28;20044;-77
2023/01/03 10:09:41;;;;;;;5.63;1.00;;;;;;;;;;5109264;28;20051;-76
2023/01/03 10:12:44;;;;;;;4.30;0.90;;;;;;;;;;5108904;28;20047;-75
2023/01/03 10:15:20;;;;;;;1.55;1.05;;;;;;;;;;5086230;28;20067;-80
2023/01/03 10:18:32;;;;;;;4.20;1.00;;;;;;;;;;5108151;28;20058;-75
2023/01/03 10:21:48;;;;;;;2.63;1.20;;;;;;;;;;5043975;28;20055;-75
2023/01/03 10:24:24;;;;;;;2.10;0.90;;;;;;;;;;5106540;28;20605;-76
2023/01/03 10:27:05;;;;;;;2.70;0.70;;;;;;;;;;5106088;28;20051;-75
2023/01/03 10:29:36;;;;;;;6.30;1.00;;;;;;;;;;5106714;28;20039;-79
2023/01/03 10:32:48;;;;;;;2.08;1.58;;;;;;;;;;5108003;28;20039;-76
2023/01/03 10:35:24;;;;;;;5.43;1.00;;;;;;;;;;5074794;28;20058;-77
2023/01/03 10:37:55;;;;;;;1.98;0.55;;;;;;;;;;5107946;28;20627;-76
2023/01/03 10:40:35;;;;;;;3.50;0.88;;;;;;;;;;5108265;28;20642;-77
2023/01/03 10:43:18;;;;;;;4.20;0.85;;;;;;;;;;5107989;28;20055;-76
2023/01/03 10:46:01;;;;;;;3.72;0.70;;;;;;;;;;5107866;28;20044;-75
2023/01/03 10:48:41;;;;;;;5.18;0.95;;;;;;;;;;5107764;28;20047;-75
2023/01/03 10:51:39;;;;;;;5.25;1.00;;;;;;;;;;5107478;28;20063;-76
2023/01/03 10:54:18;;;;;;;3.28;0.65;;;;;;;;;;5107387;28;20067;-76
2023/01/03 10:56:49;;;;;;;2.10;0.90;;;;;;;;;;5107687;28;20044;-76
2023/01/03 10:59:22;;;;;;;5.78;0.95;;;;;;;;;;5107415;28;20520;-76
2023/01/03 11:02:13;;;;;;;4.22;0.90;;;;;;;;;;5107664;28;20040;-76
2023/01/03 11:04:45;;;;;;;3.65;0.88;;;;;;;;;;5107719;28;20051;-77
2023/01/03 11:07:16;;;;;;;4.13;0.75;;;;;;;;;;5107939;28;20522;-76
2023/01/03 11:09:51;;;;;;;3.05;0.80;;;;;;;;;;5107312;28;20066;-78
2023/01/03 11:12:40;;;;;;;4.28;0.98;;;;;;;;;;5106926;28;20047;-76
2023/01/03 11:15:43;;;;;;;2.80;0.80;;;;;;;;;;5106547;28;20054;-76
2023/01/03 11:18:22;;;;;;;3.00;1.02;;;;;;;;;;5107343;28;20696;-76
2023/01/03 11:21:06;;;;;;;3.25;0.60;;;;;;;;;;5107264;28;20058;-75
2023/01/03 11:24:12;;;;;;;3.70;1.05;;;;;;;;;;5107257;28;20047;-76
2023/01/03 11:27:03;;;;;;;6.55;1.27;;;;;;;;;;5106688;28;20052;-76
2023/01/03 11:29:40;;;;;;;6.30;1.05;;;;;;;;;;5106869;28;20047;-77
2023/01/03 11:32:29;;;;;;;2.58;0.90;;;;;;;;;;5106884;28;20046;-76
2023/01/03 11:35:21;;;;;;;4.00;0.70;;;;;;;;;;5106923;28;20040;-77
2023/01/03 11:38:20;;;;;;;5.38;1.20;;;;;;;;;;5106886;28;20043;-76
2023/01/03 11:40:59;;;;;;;6.90;2.53;;;;;;;;;;5106825;28;20039;-76
2023/01/03 11:43:52;;;;;;;3.33;0.90;;;;;;;;;;5105817;28;20043;-77
2023/01/03 11:46:58;;;;;;;4.07;0.80;;;;;;;;;;5059988;28;20071;-76
2023/01/03 11:49:35;;;;;;;2.83;0.73;;;;;;;;;;5106905;28;20066;-77
2023/01/03 11:52:27;;;;;;;3.90;0.90;;;;;;;;;;5106726;28;20055;-76
2023/01/03 11:55:16;;;;;;;3.85;0.70;;;;;;;;;;5107403;28;20052;-76
2023/01/03 11:58:14;;;;;;;4.25;1.17;;;;;;;;;;5106727;28;20069;-77
2023/01/03 12:01:09;;;;;;;4.07;0.77;;;;;;;;;;5107299;28;20051;-76
2023/01/03 12:03:54;;;;;;;4.85;1.25;;;;;;;;;;5106342;28;20039;-77
2023/01/03 12:06:33;;;;;;;7.45;1.05;;;;;;;;;;5106319;28;20619;-76
2023/01/03 12:09:48;;;;;;;2.20;0.63;;;;;;;;;;5106907;28;20063;-76
2023/01/03 12:13:05;;;;;;;4.25;0.70;;;;;;;;;;5023144;28;20052;-81
2023/01/03 12:15:43;;;;;;;3.25;0.80;;;;;;;;;;4994014;28;20064;-77
2023/01/03 12:18:36;;;;;;;4.63;0.82;;;;;;;;;;5095927;28;20510;-76
2023/01/03 12:21:21;;;;;;;9.82;1.20;;;;;;;;;;5106757;28;20405;-76
2023/01/03 12:24:06;;;;;;;4.53;1.17;;;;;;;;;;5106682;28;20075;-76
2023/01/03 12:26:41;;;;;;;3.05;1.20;;;;;;;;;;5107556;28;20044;-76
2023/01/03 12:29:24;;;;;;;3.92;1.20;;;;;;;;;;5111010;28;20047;-76
2023/01/03 12:32:06;;;;;;;8.88;1.10;;;;;;;;;;5110403;28;20052;-76
2023/01/03 12:34:57;;;;;;;4.68;1.30;;;;;;;;;;5110249;28;20062;-77
2023/01/03 12:37:38;;;;;;;3.05;1.10;;;;;;;;;;5110127;28;20051;-76
2023/01/03 12:40:21;;;;;;;5.50;0.95;;;;;;;;;;5109974;28;20047;-77
2023/01/03 12:43:08;;;;;;;8.05;1.48;;;;;;;;;;5109882;28;20055;-76
2023/01/03 12:46:05;;;;;;;4.40;1.20;;;;;;;;;;5110462;28;20048;-78
2023/01/03 12:49:02;;;;;;;3.13;0.93;;;;;;;;;;5110575;28;20996;-77
2023/01/03 12:51:32;;;;;;;5.45;1.10;;;;;;;;;;5109430;28;20410;-76
2023/01/03 12:54:16;;;;;;;5.32;1.42;;;;;;;;;;5109998;28;20051;-76
2023/01/03 12:56:55;;;;;;;5.68;1.60;;;;;;;;;;5109926;28;20048;-76
2023/01/03 13:00:04;;;;;;;4.80;1.00;;;;;;;;;;5109703;28;20494;-76
2023/01/03 13:02:40;;;;;;;5.95;1.48;;;;;;;;;;5108478;28;20043;-77
2023/01/03 13:05:27;;;;;;;2.67;1.02;;;;;;;;;;5109624;28;20039;-77
2023/01/03 13:08:21;;;;;;;4.05;1.80;;;;;;;;;;5107687;28;20074;-76
2023/01/03 13:10:53;;;;;;;;;;;;;;;;;;5101061;28;20051;-76
2023/01/03 13:13:24;;;;;;;7.10;1.20;;;;;;;;;;5108350;28;19947;-76
2023/01/03 13:15:55;;;;;;;4.50;1.60;;;;;;;;;;5109368;28;20048;-76
2023/01/03 13:18:33;;;;;;;3.22;1.25;;;;;;;;;;5109115;28;20052;-76
2023/01/03 13:21:55;;;;;;;4.70;1.30;;;;;;;;;;5108069;28;20047;-79
2023/01/03 13:24:46;;;;;;;3.92;1.48;;;;;;;;;;5064998;28;20532;-76
2023/01/03 13:27:23;;;;;;;6.70;1.70;;;;;;;;;;5107756;28;20059;-76
2023/01/03 13:29:57;;;;;;;3.55;1.70;;;;;;;;;;5109265;28;20055;-76
2023/01/03 13:33:12;;;;;;;3.03;1.60;;;;;;;;;;5109243;28;20048;-76
2023/01/03 13:35:42;;;;;;;4.50;1.92;;;;;;;;;;5098421;28;20051;-76
2023/01/03 13:38:21;;;;;;;6.82;1.65;;;;;;;;;;5109086;28;20059;-77
2023/01/03 13:40:58;;;;;;;6.00;2.10;;;;;;;;;;5110365;28;20039;-85
2023/01/03 13:43:50;;;;;;;4.13;1.35;;;;;;;;;;5108710;28;20051;-76
2023/01/03 13:46:20;;;;;;;5.22;1.73;;;;;;;;;;5109208;28;20044;-76
2023/01/03 13:59:02;;;;;;;3.72;1.65;;;;;;;;;;5081815;28;20052;-76
2023/01/03 14:02:17;;;;;;;5.22;1.95;;;;;;;;;;5108646;28;20044;-77
2023/01/03 14:05:35;;;;;;;3.95;1.83;;;;;;;;;;5099157;28;20070;-77
2023/01/03 14:08:24;;;;;;;3.47;1.77;;;;;;;;;;5065711;28;20051;-77
2023/01/03 14:11:23;;;;;;;3.20;1.95;;;;;;;;;;5107462;28;20052;-77
2023/01/03 14:14:05;;;;;;;3.08;1.60;;;;;;;;;;5108687;28;20050;-76
2023/01/03 14:16:52;;;;;;;3.70;1.85;;;;;;;;;;5108801;28;20054;-74
2023/01/03 14:19:29;;;;;;;3.92;1.42;;;;;;;;;;5108217;28;20043;-76
2023/01/03 14:22:37;;;;;;;3.00;1.67;;;;;;;;;;5107839;28;20051;-80
2023/01/03 14:25:42;;;;;;;5.68;1.60;;;;;;;;;;5094014;28;20406;-77
2023/01/03 14:28:25;;;;;;;4.10;1.42;;;;;;;;;;5108351;28;20055;-78
2023/01/03 14:30:56;;;;;;;5.10;1.92;;;;;;;;;;5107705;28;20133;-77
2023/01/03 14:33:39;;;;;;;4.60;2.33;;;;;;;;;;5108389;28;20058;-77
2023/01/03 14:36:16;;;;;;;3.05;2.25;;;;;;;;;;5108467;28;20047;-77
2023/01/03 14:38:52;;;;;;;3.10;1.92;;;;;;;;;;5107073;28;20043;-76
2023/01/03 14:41:27;;;;;;;2.47;1.35;;;;;;;;;;5107747;28;20051;-76
2023/01/03 14:44:02;;;;;;;3.70;1.70;;;;;;;;;;5107103;28;20052;-81
2023/01/03 14:46:34;;;;;;;4.57;1.80;;;;;;;;;;5107789;28;20417;-77
2023/01/03 14:49:15;;;;;;;6.35;2.22;;;;;;;;;;5106687;28;20509;-77
2023/01/03 14:51:47;;;;;;;8.23;1.92;;;;;;;;;;5105762;28;20059;-78
2023/01/03 14:54:19;;;;;;;3.88;2.15;;;;;;;;;;5107739;28;20068;-76
2023/01/03 14:56:50;;;;;;;3.50;2.00;;;;;;;;;;5105940;28;20390;-76
2023/01/03 14:59:22;;;;;;;4.25;2.33;;;;;;;;;;5107529;28;20047;-76
2023/01/03 15:01:53;;;;;;;5.72;2.35;;;;;;;;;;5105908;28;20055;-77
2023/01/03 15:04:24;;;;;;;4.82;1.85;;;;;;;;;;5105191;28;20063;-75
2023/01/03 15:07:01;;;;;;;5.80;2.05;;;;;;;;;;5106636;28;20059;-76
2023/01/03 15:09:41;;;;;;;3.42;1.90;;;;;;;;;;5106107;28;20054;-77
2023/01/03 15:12:14;;;;;;;4.30;1.80;;;;;;;;;;5107520;28;20490;-76
2023/01/03 15:14:45;;;;;;;6.85;1.73;;;;;;;;;;5107561;28;20043;-76
2023/01/03 15:17:18;;;;;;;6.32;1.60;;;;;;;;;;5105828;28;20043;-75
2023/01/03 15:19:55;;;;;;;5.95;1.73;;;;;;;;;;5105530;28;20506;-76
2023/01/03 15:22:39;;;;;;;8.63;1.60;;;;;;;;;;5105903;28;20413;-77
2023/01/03 15:25:26;;;;;;;4.53;1.90;;;;;;;;;;5105910;28;20059;-77
2023/01/03 15:28:23;;;;;;;3.90;1.63;;;;;;;;;;5105562;28;20517;-76
2023/01/03 15:31:11;;;;;;;4.10;1.70;;;;;;;;;;5105689;28;20051;-76
2023/01/03 15:33:43;;;;;;;4.55;1.63;;;;;;;;;;5107166;28;20096;-76
2023/01/03 15:36:15;;;;;;;3.33;1.45;;;;;;;;;;5104954;28;20051;-77
2023/01/03 15:38:49;;;;;;;7.82;2.00;;;;;;;;;;5104639;28;20047;-76
2023/01/03 15:58:25;;;;;;;4.15;1.45;;;;;;;;;;5063275;28;20423;-76
2023/01/03 16:00:58;;;;;;;4.05;1.25;;;;;;;;;;5048415;28;20411;-76
2023/01/03 16:03:31;;;;;;;2.97;1.42;;;;;;;;;;5084402;28;20066;-76
2023/01/03 16:06:02;;;;;;;5.13;1.40;;;;;;;;;;5090847;28;20051;-76
2023/01/03 16:08:36;;;;;;;5.38;1.50;;;;;;;;;;5090799;28;20051;-76
2023/01/03 16:11:19;;;;;;;3.22;1.27;;;;;;;;;;5091474;28;20043;-76
2023/01/03 16:14:02;;;;;;;2.95;1.67;;;;;;;;;;5089360;28;20444;-76
2023/01/03 16:16:39;;;;;;;3.20;1.23;;;;;;;;;;5090356;28;20052;-76
2023/01/03 16:19:23;;;;;;;3.30;1.35;;;;;;;;;;5090351;28;20414;-76
2023/01/03 16:22:05;;;;;;;2.28;1.27;;;;;;;;;;5089759;28;20032;-75
2023/01/03 16:24:55;;;;;;;4.63;1.70;;;;;;;;;;5089946;28;20054;-75
2023/01/03 16:27:26;;;;;;;3.53;2.00;;;;;;;;;;5089934;28;20052;-76
2023/01/03 16:29:56;;;;;;;3.22;1.20;;;;;;;;;;5089910;28;20070;-79
2023/01/03 16:32:29;;;;;;;2.22;1.10;;;;;;;;;;5089649;28;20048;-80
2023/01/03 16:35:04;;;;;;;3.80;1.17;;;;;;;;;;5090599;28;20052;-76
2023/01/03 16:37:35;;;;;;;1.70;1.13;;;;;;;;;;5090584;28;20048;-76
2023/01/03 16:40:17;;;;;;;2.22;1.13;;;;;;;;;;5090339;28;20063;-75
2023/01/03 16:42:47;;;;;;;4.63;1.45;;;;;;;;;;5089456;28;20693;-76
2023/01/03 16:45:18;;;;;;;1.92;1.15;;;;;;;;;;5089452;28;20044;-76
2023/01/03 16:47:52;;;;;;;2.55;1.33;;;;;;;;;;5089788;28;20052;-76
2023/01/03 16:50:23;;;;;;;6.35;1.35;;;;;;;;;;5090513;28;20056;-76
2023/01/03 16:52:56;;;;;;;2.13;1.15;;;;;;;;;;5090029;28;20048;-75
2023/01/03 16:55:31;;;;;;;2.40;1.13;;;;;;;;;;5089644;28;20044;-76
2023/01/03 16:58:02;;;;;;;2.08;1.23;;;;;;;;;;5089749;28;20067;-77
2023/01/03 17:00:35;;;;;;;3.97;1.30;;;;;;;;;;5090112;28;20427;-76
2023/01/03 17:03:06;;;;;;;5.03;1.40;;;;;;;;;;5089299;28;20056;-78
2023/01/03 17:05:38;;;;;;;2.47;1.35;;;;;;;;;;5089513;28;20036;-78
2023/01/03 17:08:15;;;;;;;4.30;1.67;;;;;;;;;;5086849;28;20055;-76
2023/01/03 17:10:47;;;;;;;2.75;1.40;;;;;;;;;;5089674;28;20051;-76
2023/01/03 17:13:34;;;;;;;3.97;1.45;;;;;;;;;;5088879;28;20052;-76
2023/01/03 17:16:14;;;;;;;5.07;1.58;;;;;;;;;;5087886;28;20511;-76
2023/01/03 17:18:46;;;;;;;2.65;1.60;;;;;;;;;;5089603;28;20048;-76
2023/01/03 17:21:23;;;;;;;2.42;1.42;;;;;;;;;;5089864;28;20072;-76
2023/01/03 17:24:06;;;;;;;2.35;1.20;;;;;;;;;;5088109;28;20055;-76